Time;durP1;ratioP1;P1;durP2;ratioP2;P2;SDS_P1;SDS_P2;PMS_P1;PMS_P2;Temp;Humidity;BMP_temperature;BMP_pressure;BME280_temperature;BME280_humidity;BME280_pressure;Samples;Min_cycle;Max_cycle;Signal;HPM_P1;HPM_P2
2023/10/11 00:00:33;;;;;;;21.23;6.97;;;11.40;35.90;;;;;;4996327;28;45915;-83
2023/10/11 00:05:50;;;;;;;25.63;6.53;;;11.50;36.20;;;;;;4997398;28;46769;-86
2023/10/11 00:08:17;;;;;;;24.13;6.30;;;11.60;36.40;;;;;;4998442;28;46504;-85
2023/10/11 00:10:53;;;;;;;20.30;6.00;;;11.70;36.50;;;;;;4997688;28;46937;-86
2023/10/11 00:13:19;;;;;;;17.87;7.20;;;11.70;36.70;;;;;;4998245;28;47155;-82
2023/10/11 00:15:50;;;;;;;18.10;6.37;;;11.70;36.80;;;;;;4996518;28;46762;-86
2023/10/11 00:18:27;;;;;;;19.37;6.87;;;11.70;37.10;;;;;;4999316;28;46422;-87
2023/10/11 00:20:57;;;;;;;22.53;7.43;;;11.70;37.30;;;;;;4985902;28;46508;-84
2023/10/11 00:23:27;;;;;;;20.80;6.50;;;11.70;37.60;;;;;;4996438;28;48253;-85
2023/10/11 00:25:58;;;;;;;20.03;7.20;;;11.60;37.80;;;;;;4993748;28;46462;-86
2023/10/11 00:28:26;;;;;;;27.63;5.77;;;11.60;38.30;;;;;;5014242;28;46637;-86
2023/10/11 00:30:56;;;;;;;18.10;6.07;;;11.50;38.60;;;;;;4999020;28;46455;-85
2023/10/11 00:33:22;;;;;;;19.60;5.37;;;11.40;38.80;;;;;;4997823;28;47949;-84
2023/10/11 00:35:50;;;;;;;23.80;5.87;;;11.40;39.10;;;;;;4999359;28;46513;-86
2023/10/11 00:38:27;;;;;;;15.40;5.27;;;11.30;39.50;;;;;;5017158;28;46635;-86
2023/10/11 00:41:18;;;;;;;21.97;5.30;;;11.20;39.50;;;;;;4999271;28;46421;-84
2023/10/11 00:43:54;;;;;;;19.80;5.90;;;11.10;39.40;;;;;;4995782;28;46970;-85
2023/10/11 00:46:21;;;;;;;23.73;6.63;;;11.00;39.30;;;;;;4996445;28;46775;-85
2023/10/11 00:48:54;;;;;;;19.53;6.33;;;10.90;39.20;;;;;;4998285;28;45956;-85
2023/10/11 00:51:23;;;;;;;30.87;7.07;;;10.80;39.20;;;;;;4994209;28;46598;-85
2023/10/11 00:53:50;;;;;;;19.90;6.37;;;10.80;39.10;;;;;;4997882;28;47790;-86
2023/10/11 00:56:18;;;;;;;18.20;5.67;;;10.80;39.10;;;;;;4997996;28;46730;-86
2023/10/11 00:58:44;;;;;;;18.83;6.20;;;10.80;39.20;;;;;;4997440;28;46741;-85
2023/10/11 01:01:10;;;;;;;16.53;5.87;;;10.70;39.10;;;;;;4996046;28;46341;-84
2023/10/11 01:03:37;;;;;;;15.97;6.07;;;10.70;39.10;;;;;;4996225;28;48647;-85
2023/10/11 01:06:04;;;;;;;18.73;5.90;;;10.70;39.10;;;;;;4998897;28;46616;-83
2023/10/11 01:08:38;;;;;;;20.40;5.67;;;10.70;39.10;;;;;;4998131;28;46492;-85
2023/10/11 01:11:14;;;;;;;14.80;5.20;;;10.70;39.00;;;;;;5001403;28;46505;-85
2023/10/11 01:13:42;;;;;;;17.27;7.00;;;10.60;38.90;;;;;;5000876;28;47820;-86
2023/10/11 01:16:14;;;;;;;14.47;6.20;;;10.70;39.20;;;;;;5001229;28;46359;-85
2023/10/11 01:18:40;;;;;;;21.73;5.93;;;10.60;39.00;;;;;;4998545;28;46961;-84
2023/10/11 01:21:07;;;;;;;24.97;6.13;;;10.80;39.10;;;;;;5000475;28;46349;-85
2023/10/11 01:23:34;;;;;;;20.07;5.97;;;10.60;38.90;;;;;;5000325;28;46992;-86
2023/10/11 01:26:06;;;;;;;17.87;6.20;;;10.60;39.00;;;;;;5000066;28;46919;-86
2023/10/11 01:28:35;;;;;;;18.00;5.90;;;10.50;38.80;;;;;;4999729;28;46519;-85
2023/10/11 01:31:08;;;;;;;20.57;6.00;;;10.50;39.00;;;;;;4999494;28;46511;-86
2023/10/11 01:33:35;;;;;;;15.00;5.53;;;10.40;39.20;;;;;;4998542;28;48299;-85
2023/10/11 01:36:04;;;;;;;20.60;6.33;;;10.40;39.40;;;;;;4998405;28;46727;-85
2023/10/11 01:38:32;;;;;;;14.13;6.47;;;10.40;39.40;;;;;;4999804;28;46452;-86
2023/10/11 01:40:58;;;;;;;16.00;5.63;;;10.30;39.40;;;;;;5001074;28;46010;-86
2023/10/11 01:43:23;;;;;;;16.87;6.10;;;10.30;39.60;;;;;;4999247;28;48065;-85
2023/10/11 01:45:49;;;;;;;23.53;6.07;;;10.20;39.80;;;;;;4999471;28;45861;-87
2023/10/11 01:48:15;;;;;;;25.57;5.90;;;10.20;40.00;;;;;;4994554;28;46436;-86
2023/10/11 01:50:41;;;;;;;17.27;4.70;;;10.20;39.90;;;;;;5000054;28;46450;-86
2023/10/11 01:53:08;;;;;;;24.83;5.67;;;10.20;39.80;;;;;;4998161;28;48652;-86
2023/10/11 01:55:36;;;;;;;12.70;5.63;;;10.30;39.70;;;;;;4999888;28;46860;-85
2023/10/11 01:58:06;;;;;;;19.00;5.97;;;10.20;39.50;;;;;;4999845;28;46384;-86
2023/10/11 02:00:33;;;;;;;20.27;5.50;;;10.30;39.60;;;;;;4999614;28;46531;-84
2023/10/11 02:02:59;;;;;;;17.30;6.20;;;10.30;39.40;;;;;;4998405;28;47173;-85
2023/10/11 02:05:25;;;;;;;21.27;6.70;;;10.30;39.40;;;;;;5001034;28;46805;-86
2023/10/11 02:07:51;;;;;;;14.27;5.70;;;10.20;39.50;;;;;;4997775;28;46439;-86
2023/10/11 02:10:36;;;;;;;23.93;6.63;;;10.30;39.50;;;;;;5000177;28;46783;-86
2023/10/11 02:13:04;;;;;;;24.37;7.33;;;10.20;39.50;;;;;;5000456;28;46655;-84
2023/10/11 02:15:30;;;;;;;21.40;5.57;;;10.20;39.60;;;;;;5000485;28;46028;-86
2023/10/11 02:17:56;;;;;;;23.03;6.30;;;10.10;39.70;;;;;;4998872;28;46990;-85
2023/10/11 02:20:22;;;;;;;16.03;5.97;;;10.10;40.00;;;;;;4999140;28;46713;-88
2023/10/11 02:22:55;;;;;;;20.90;5.30;;;10.00;40.20;;;;;;4999742;28;46792;-85
2023/10/11 02:25:26;;;;;;;18.27;5.83;;;10.00;40.70;;;;;;4999424;28;46521;-85
2023/10/11 02:27:54;;;;;;;14.13;5.63;;;9.90;41.70;;;;;;4998176;28;46467;-86
2023/10/11 02:30:25;;;;;;;22.47;5.50;;;9.90;41.80;;;;;;5002137;28;46829;-85
2023/10/11 02:32:58;;;;;;;16.30;5.80;;;9.80;41.70;;;;;;4999252;28;46515;-84
2023/10/11 02:35:26;;;;;;;16.60;5.13;;;9.80;41.60;;;;;;4995788;28;46706;-86
2023/10/11 02:37:55;;;;;;;19.63;5.37;;;9.80;41.50;;;;;;4999775;28;46548;-87
2023/10/11 02:40:24;;;;;;;18.40;5.43;;;9.80;41.40;;;;;;5000021;28;46930;-87
2023/10/11 02:42:55;;;;;;;15.93;5.70;;;9.80;41.40;;;;;;4998229;28;46830;-85
2023/10/11 02:45:25;;;;;;;12.43;5.80;;;9.80;41.30;;;;;;4998007;28;46459;-85
2023/10/11 02:47:59;;;;;;;17.83;6.27;;;9.90;41.20;;;;;;4999474;28;47006;-85
2023/10/11 02:50:25;;;;;;;18.93;5.50;;;9.90;41.10;;;;;;5002445;28;46448;-85
2023/10/11 02:53:05;;;;;;;20.73;6.60;;;10.10;40.10;;;;;;5006453;28;46562;-91
2023/10/11 02:55:30;;;;;;;24.13;6.03;;;10.10;39.90;;;;;;5010372;28;46869;-86
2023/10/11 02:58:08;;;;;;;23.77;5.30;;;10.00;39.60;;;;;;5006522;28;46448;-85
2023/10/11 03:00:36;;;;;;;16.47;5.63;;;10.20;39.70;;;;;;5003528;28;45946;-86
2023/10/11 03:03:07;;;;;;;16.20;5.73;;;10.10;39.20;;;;;;5003391;28;46421;-86
2023/10/11 03:05:36;;;;;;;23.23;6.50;;;10.10;39.20;;;;;;5005206;28;45777;-87
2023/10/11 03:08:15;;;;;;;18.90;5.90;;;10.20;39.40;;;;;;5012589;28;45886;-84
2023/10/11 03:10:45;;;;;;;18.17;6.20;;;10.20;39.40;;;;;;5019658;28;45846;-85
2023/10/11 03:13:19;;;;;;;15.90;6.60;;;10.60;39.80;;;;;;5001817;28;46676;-85
2023/10/11 03:15:46;;;;;;;23.60;6.50;;;10.40;39.80;;;;;;5000824;28;46451;-84
2023/10/11 03:18:12;;;;;;;19.57;6.33;;;10.50;40.00;;;;;;5002180;28;46502;-87
2023/10/11 03:20:38;;;;;;;27.10;5.60;;;10.50;40.20;;;;;;4992044;28;47110;-85
2023/10/11 03:23:10;;;;;;;24.57;6.60;;;10.50;40.30;;;;;;5000318;28;48198;-85
2023/10/11 03:25:38;;;;;;;19.60;7.80;;;10.50;40.40;;;;;;5001568;28;45861;-83
2023/10/11 03:28:05;;;;;;;25.40;5.90;;;10.50;40.50;;;;;;5001668;28;46483;-84
2023/10/11 03:30:35;;;;;;;14.40;5.03;;;10.50;40.70;;;;;;5004125;28;47031;-81
2023/10/11 03:33:02;;;;;;;16.23;5.20;;;10.50;41.10;;;;;;5002292;28;46695;-83
2023/10/11 03:35:33;;;;;;;15.43;5.80;;;10.50;41.30;;;;;;5003861;28;46890;-85
2023/10/11 03:38:00;;;;;;;16.10;6.40;;;10.40;41.70;;;;;;5006828;28;45922;-85
2023/10/11 03:40:34;;;;;;;16.60;4.80;;;10.40;42.00;;;;;;5002476;28;46566;-84
2023/10/11 03:43:16;;;;;;;22.47;6.50;;;10.40;42.30;;;;;;5000991;28;46832;-84
2023/10/11 03:45:49;;;;;;;19.63;5.53;;;10.30;42.40;;;;;;5000461;28;46705;-84
2023/10/11 03:48:16;;;;;;;22.57;5.17;;;10.50;42.70;;;;;;5001769;28;46722;-85
2023/10/11 03:50:47;;;;;;;21.90;5.20;;;10.40;42.50;;;;;;5000472;28;46627;-84
2023/10/11 03:53:14;;;;;;;20.33;5.90;;;10.50;42.70;;;;;;5000345;28;46273;-85
2023/10/11 03:55:46;;;;;;;17.80;5.10;;;10.50;42.80;;;;;;4998681;28;46768;-83
2023/10/11 03:58:32;;;;;;;23.70;5.00;;;10.40;42.70;;;;;;4996472;28;46444;-86
2023/10/11 04:01:12;;;;;;;16.83;4.97;;;10.40;42.80;;;;;;5001654;28;46663;-85
2023/10/11 04:03:41;;;;;;;16.43;5.27;;;10.40;42.80;;;;;;5002455;28;48261;-84
2023/10/11 04:06:13;;;;;;;17.20;5.87;;;10.50;42.80;;;;;;5002150;28;46438;-84
2023/10/11 04:08:47;;;;;;;18.90;6.07;;;10.50;44.10;;;;;;4999631;28;46490;-85
2023/10/11 04:11:22;;;;;;;17.90;5.20;;;10.60;42.90;;;;;;5000668;28;45875;-85
2023/10/11 04:13:49;;;;;;;19.37;5.27;;;10.60;42.90;;;;;;5002903;28;46596;-86
2023/10/11 04:16:18;;;;;;;24.87;6.47;;;10.70;42.90;;;;;;5004266;28;46189;-85
2023/10/11 04:18:44;;;;;;;32.50;5.57;;;10.70;43.00;;;;;;5009795;28;46233;-80
2023/10/11 04:23:36;;;;;;;14.37;5.27;;;10.80;43.50;;;;;;5002463;28;46447;-85
2023/10/11 04:26:26;;;;;;;23.20;5.30;;;10.70;43.50;;;;;;5005757;28;46388;-86
2023/10/11 04:28:52;;;;;;;14.17;5.00;;;10.60;43.60;;;;;;5007217;28;46108;-86
2023/10/11 04:31:29;;;;;;;14.70;4.80;;;10.80;43.80;;;;;;5005189;28;46171;-83
2023/10/11 04:33:55;;;;;;;15.60;5.77;;;10.60;43.70;;;;;;5006434;28;46459;-86
2023/10/11 04:36:21;;;;;;;14.30;4.80;;;10.60;44.00;;;;;;5012145;28;46435;-87
2023/10/11 04:38:50;;;;;;;13.13;5.23;;;10.50;44.20;;;;;;5011353;28;45947;-84
2023/10/11 04:41:18;;;;;;;16.00;5.90;;;10.50;44.40;;;;;;5012264;28;45964;-87
2023/10/11 04:44:04;;;;;;;28.50;5.80;;;10.50;44.40;;;;;;5015538;28;46839;-85
2023/10/11 04:46:31;;;;;;;16.27;4.47;;;10.50;44.60;;;;;;5022199;28;46500;-84
2023/10/11 04:49:17;;;;;;;14.67;5.00;;;10.50;44.90;;;;;;5026984;28;45826;-84
2023/10/11 04:51:45;;;;;;;22.03;5.40;;;10.40;45.00;;;;;;5017785;28;45946;-84
2023/10/11 04:54:13;;;;;;;13.83;4.77;;;10.50;45.10;;;;;;5013785;28;46569;-84
2023/10/11 04:59:27;;;;;;;23.43;5.50;;;10.50;44.90;;;;;;5024346;28;45743;-84
2023/10/11 05:04:28;;;;;;;15.60;4.93;;;10.60;44.70;;;;;;5010481;28;45935;-86
2023/10/11 05:06:55;;;;;;;19.37;4.87;;;10.60;44.60;;;;;;5002235;28;46851;-85
2023/10/11 05:09:29;;;;;;;16.50;5.27;;;10.70;44.70;;;;;;5002912;28;46570;-83
2023/10/11 05:14:41;;;;;;;12.70;4.63;;;10.60;44.70;;;;;;5000019;28;46691;-85
2023/10/11 05:22:45;;;;;;;14.73;4.93;;;10.50;44.80;;;;;;5001096;28;46759;-84
2023/10/11 05:28:07;;;;;;;12.07;4.40;;;10.40;44.80;;;;;;5000936;28;46895;-85
2023/10/11 05:30:37;;;;;;;14.13;4.73;;;10.40;45.00;;;;;;5002837;28;46246;-85
2023/10/11 05:52:07;;;;;;;16.73;5.20;;;10.50;44.00;;;;;;5000088;28;46854;-86
2023/10/11 05:54:35;;;;;;;12.57;3.73;;;10.50;43.70;;;;;;5000907;28;46635;-84
2023/10/11 05:57:04;;;;;;;20.70;4.60;;;10.60;43.50;;;;;;4997517;28;46635;-82
2023/10/11 05:59:32;;;;;;;20.07;6.80;;;10.70;44.70;;;;;;4998205;28;46430;-85
2023/10/11 06:01:58;;;;;;;17.83;4.57;;;10.70;43.30;;;;;;4993315;28;47786;-81
2023/10/11 06:04:24;;;;;;;13.77;4.10;;;10.70;43.20;;;;;;5000156;28;46429;-81
2023/10/11 06:06:57;;;;;;;11.90;5.00;;;10.80;43.10;;;;;;4998598;28;46941;-82
2023/10/11 06:09:27;;;;;;;11.43;4.10;;;10.80;43.00;;;;;;4999890;28;45906;-85
2023/10/11 06:11:53;;;;;;;9.97;3.97;;;10.90;42.90;;;;;;4995423;28;46694;-82
2023/10/11 06:14:20;;;;;;;13.23;4.10;;;10.90;42.70;;;;;;4996419;28;47117;-84
2023/10/11 06:16:57;;;;;;;16.40;4.03;;;10.90;42.50;;;;;;4999356;28;46797;-83
2023/10/11 06:19:27;;;;;;;9.97;3.97;;;11.00;42.50;;;;;;4998583;28;46540;-84
2023/10/11 06:21:56;;;;;;;16.93;4.07;;;11.00;42.40;;;;;;4996129;28;46249;-83
2023/10/11 06:24:27;;;;;;;16.77;3.80;;;11.10;42.20;;;;;;4997355;28;46655;-82
2023/10/11 06:26:52;;;;;;;14.73;4.33;;;11.20;42.00;;;;;;4998247;28;46577;-84
2023/10/11 06:29:24;;;;;;;27.43;5.30;;;11.20;41.80;;;;;;4997728;28;46484;-86
2023/10/11 06:31:53;;;;;;;12.90;4.10;;;11.20;41.60;;;;;;4990139;28;45912;-83
2023/10/11 06:36:51;;;;;;;23.37;4.83;;;11.40;41.40;;;;;;5000985;28;47550;-84
2023/10/11 06:44:48;;;;;;;17.73;4.50;;;11.60;40.90;;;;;;4998323;28;46945;-84
2023/10/11 06:47:14;;;;;;;13.27;4.30;;;11.70;40.80;;;;;;4996050;28;47229;-80
2023/10/11 06:49:47;;;;;;;15.33;3.87;;;11.80;40.80;;;;;;4996953;28;46440;-80
2023/10/11 06:52:19;;;;;;;13.63;4.00;;;11.80;40.30;;;;;;4996615;28;46780;-81
2023/10/11 06:54:47;;;;;;;15.20;4.00;;;12.00;41.50;;;;;;4996863;28;45974;-81
2023/10/11 06:57:17;;;;;;;14.50;4.40;;;12.20;40.40;;;;;;4996775;28;47596;-84
2023/10/11 06:59:43;;;;;;;18.47;4.50;;;12.50;40.00;;;;;;4998853;28;46524;-83
2023/10/11 07:02:17;;;;;;;11.43;4.13;;;12.70;39.40;;;;;;4996862;28;46530;-84
2023/10/11 07:04:52;;;;;;;17.80;4.30;;;13.00;39.00;;;;;;4997690;28;46676;-83
2023/10/11 07:07:18;;;;;;;11.20;3.60;;;13.10;38.40;;;;;;4995463;28;48635;-82
2023/10/11 07:09:56;;;;;;;13.30;4.07;;;13.30;38.10;;;;;;4995327;28;46489;-84
2023/10/11 07:12:28;;;;;;;12.67;4.10;;;13.50;37.70;;;;;;4997747;28;46005;-79
2023/10/11 07:14:57;;;;;;;15.20;4.00;;;13.70;37.40;;;;;;4994743;28;46648;-82
2023/10/11 07:17:24;;;;;;;12.17;3.80;;;13.80;37.00;;;;;;4995711;28;46622;-80
2023/10/11 07:19:50;;;;;;;29.40;4.70;;;14.00;36.90;;;;;;4997731;28;46426;-80
2023/10/11 07:22:18;;;;;;;18.67;5.13;;;14.20;36.40;;;;;;4978783;28;47737;-80
2023/10/11 07:24:45;;;;;;;13.17;4.20;;;14.50;36.00;;;;;;4999796;28;46948;-81
2023/10/11 07:27:26;;;;;;;18.30;4.33;;;14.60;35.50;;;;;;4996110;28;46690;-81
2023/10/11 07:29:54;;;;;;;21.53;5.43;;;14.80;35.00;;;;;;4997234;28;46749;-81
2023/10/11 07:32:21;;;;;;;15.33;3.70;;;15.10;34.50;;;;;;4998163;28;46640;-80
2023/10/11 07:34:48;;;;;;;13.10;4.50;;;15.30;34.10;;;;;;4997099;28;46539;-80
2023/10/11 07:37:18;;;;;;;15.10;4.60;;;15.50;33.50;;;;;;4995063;28;48570;-82
2023/10/11 07:39:47;;;;;;;14.80;4.00;;;15.70;32.90;;;;;;4997196;28;47288;-81
2023/10/11 07:42:18;;;;;;;11.20;3.80;;;15.80;32.20;;;;;;4996811;28;46523;-85
2023/10/11 07:44:50;;;;;;;17.97;4.40;;;16.00;31.50;;;;;;4999005;28;46461;-84
2023/10/11 07:47:16;;;;;;;10.30;3.30;;;16.20;30.60;;;;;;4995403;28;49372;-81
2023/10/11 07:49:42;;;;;;;15.43;4.17;;;16.30;30.60;;;;;;4998873;28;47494;-81
2023/10/11 07:52:09;;;;;;;25.20;4.40;;;16.50;30.90;;;;;;4996302;28;46532;-82
2023/10/11 07:54:39;;;;;;;16.47;4.17;;;16.60;30.20;;;;;;4994860;28;46402;-84
2023/10/11 07:57:12;;;;;;;14.53;3.53;;;16.80;29.70;;;;;;4996766;28;46664;-80
2023/10/11 07:59:39;;;;;;;17.23;3.97;;;16.90;29.40;;;;;;4998689;28;46922;-84
2023/10/11 08:02:09;;;;;;;12.63;4.17;;;17.10;29.00;;;;;;4997006;28;47139;-79
2023/10/11 08:04:47;;;;;;;16.67;4.70;;;17.30;28.60;;;;;;4997976;28;46742;-82
2023/10/11 08:07:16;;;;;;;12.10;4.40;;;17.40;28.00;;;;;;4996963;28;48377;-80
2023/10/11 08:09:45;;;;;;;16.33;4.73;;;17.60;27.70;;;;;;5000709;28;46431;-81
2023/10/11 08:12:16;;;;;;;7.93;2.93;;;17.80;27.30;;;;;;4998838;28;46617;-80
2023/10/11 08:14:45;;;;;;;23.27;3.90;;;17.90;26.90;;;;;;5003517;28;46722;-82
2023/10/11 08:17:14;;;;;;;19.93;4.50;;;18.10;26.70;;;;;;5005139;28;46446;-84
2023/10/11 08:19:44;;;;;;;15.77;4.40;;;18.30;26.30;;;;;;5005457;28;46542;-83
2023/10/11 08:22:16;;;;;;;19.03;3.97;;;18.40;25.90;;;;;;5014199;28;46485;-83
2023/10/11 08:24:49;;;;;;;15.20;3.80;;;18.50;25.40;;;;;;5014683;28;45808;-82
2023/10/11 08:32:33;;;;;;;14.53;3.73;;;18.90;24.20;;;;;;5000397;28;46783;-83
2023/10/11 08:34:58;;;;;;;10.90;3.40;;;19.00;23.70;;;;;;4998334;28;46761;-82
2023/10/11 08:37:24;;;;;;;15.50;3.80;;;19.10;23.20;;;;;;4998688;28;47995;-82
2023/10/11 08:39:54;;;;;;;16.57;4.13;;;19.20;22.60;;;;;;4999712;28;46490;-81
2023/10/11 08:42:19;;;;;;;11.43;3.40;;;19.40;22.00;;;;;;4999097;28;45937;-81
2023/10/11 08:44:45;;;;;;;23.63;4.23;;;19.40;22.00;;;;;;5000894;28;46483;-82
2023/10/11 08:47:16;;;;;;;11.77;3.37;;;19.50;22.10;;;;;;4998658;28;46709;-77
2023/10/11 08:49:48;;;;;;;12.13;3.80;;;19.60;21.30;;;;;;5000089;28;45783;-82
2023/10/11 08:52:17;;;;;;;13.90;3.77;;;19.70;21.00;;;;;;4997491;28;46462;-84
2023/10/11 08:54:44;;;;;;;15.63;3.87;;;19.90;20.40;;;;;;4996736;28;46364;-81
2023/10/11 08:57:13;;;;;;;15.30;3.90;;;20.00;20.10;;;;;;4998393;28;46785;-80
2023/10/11 08:59:56;;;;;;;25.33;4.07;;;20.10;19.60;;;;;;4997700;28;47618;-83
2023/10/11 09:02:24;;;;;;;11.43;3.10;;;20.30;19.00;;;;;;4996861;28;46520;-80
2023/10/11 09:04:56;;;;;;;26.33;3.80;;;20.50;19.10;;;;;;4998475;28;47019;-80
2023/10/11 09:07:44;;;;;;;22.07;4.30;;;20.50;19.20;;;;;;4997337;28;46460;-82
2023/10/11 09:10:28;;;;;;;15.30;3.53;;;20.60;17.60;;;;;;4998382;28;46444;-79
2023/10/11 09:12:58;;;;;;;14.20;3.40;;;20.80;17.00;;;;;;4998137;28;46506;-82
2023/10/11 09:15:44;;;;;;;15.53;3.60;;;20.90;17.00;;;;;;4999582;28;46620;-85
2023/10/11 09:18:17;;;;;;;19.83;3.77;;;21.00;15.60;;;;;;4999779;28;47581;-80
2023/10/11 09:20:49;;;;;;;13.37;3.30;;;21.00;14.90;;;;;;4999150;28;46525;-83
2023/10/11 09:23:20;;;;;;;18.03;3.07;;;20.90;14.30;;;;;;4998427;28;46443;-80
2023/10/11 09:25:59;;;;;;;18.83;4.10;;;21.10;14.10;;;;;;4997862;28;46332;-81
2023/10/11 09:28:33;;;;;;;14.13;3.00;;;21.10;13.50;;;;;;4997132;28;48787;-80
2023/10/11 09:31:13;;;;;;;11.27;3.37;;;21.20;13.70;;;;;;4998416;28;46649;-80
2023/10/11 09:33:51;;;;;;;16.33;4.03;;;21.30;13.20;;;;;;4995956;28;46793;-81
2023/10/11 09:36:20;;;;;;;13.20;3.53;;;21.50;13.10;;;;;;4997306;28;46560;-80
2023/10/11 09:38:54;;;;;;;14.73;3.60;;;21.60;12.50;;;;;;5000022;28;46569;-80
2023/10/11 09:41:22;;;;;;;12.67;3.20;;;21.60;12.50;;;;;;4997795;28;46586;-79
2023/10/11 09:43:48;;;;;;;13.00;4.07;;;21.70;12.50;;;;;;5000233;28;46449;-78
2023/10/11 09:46:14;;;;;;;10.90;2.87;;;21.90;12.20;;;;;;4996800;28;46465;-79
2023/10/11 09:48:43;;;;;;;7.27;3.10;;;21.90;12.10;;;;;;4996547;28;46476;-79
2023/10/11 09:51:15;;;;;;;13.80;3.73;;;22.10;11.80;;;;;;4996922;28;46812;-79
2023/10/11 09:53:42;;;;;;;12.23;3.30;;;22.10;10.70;;;;;;5006462;28;46511;-80
2023/10/11 09:56:29;;;;;;;18.17;4.47;;;22.10;9.20;;;;;;4997856;28;46719;-81
2023/10/11 09:59:22;;;;;;;13.67;3.67;;;22.00;9.50;;;;;;4999210;28;46511;-81
2023/10/11 10:02:03;;;;;;;17.37;4.20;;;22.10;9.30;;;;;;4999632;28;46204;-79
2023/10/11 10:04:55;;;;;;;27.73;4.40;;;22.00;8.90;;;;;;4999017;28;46737;-79
2023/10/11 10:07:26;;;;;;;18.00;4.00;;;22.10;9.00;;;;;;4996044;28;45998;-76
2023/10/11 10:09:53;;;;;;;13.07;3.33;;;22.20;9.10;;;;;;5000309;28;47385;-81
2023/10/11 10:12:25;;;;;;;15.70;4.10;;;22.30;9.20;;;;;;5001492;28;46753;-82
2023/10/11 10:15:13;;;;;;;11.20;3.23;;;22.40;8.80;;;;;;4992287;28;45856;-83
2023/10/11 10:17:39;;;;;;;15.07;3.80;;;22.40;7.90;;;;;;5000843;28;46875;-81
2023/10/11 10:20:43;;;;;;;16.83;3.80;;;22.40;8.20;;;;;;4999753;28;46434;-82
2023/10/11 10:23:14;;;;;;;24.93;4.47;;;22.50;8.10;;;;;;5000533;28;47257;-78
2023/10/11 10:25:48;;;;;;;15.90;3.60;;;22.50;7.80;;;;;;5000345;28;46873;-80
2023/10/11 10:28:32;;;;;;;19.30;4.13;;;22.50;7.10;;;;;;4999734;28;46954;-81
2023/10/11 10:31:17;;;;;;;20.30;3.87;;;22.60;7.30;;;;;;4999386;28;48381;-78
2023/10/11 10:33:50;;;;;;;12.37;4.30;;;22.70;7.60;;;;;;4996223;28;46454;-79
2023/10/11 10:36:21;;;;;;;17.27;3.00;;;22.70;7.30;;;;;;4998234;28;46827;-79
2023/10/11 10:39:12;;;;;;;21.17;3.93;;;22.80;6.70;;;;;;4994583;28;46556;-80
2023/10/11 10:41:40;;;;;;;15.53;4.20;;;22.80;6.80;;;;;;4996546;28;46545;-79
2023/10/11 10:44:21;;;;;;;15.10;4.00;;;22.80;6.20;;;;;;4996175;28;46838;-79
2023/10/11 10:46:49;;;;;;;11.07;4.30;;;22.90;6.60;;;;;;5015408;28;46617;-81
2023/10/11 10:49:47;;;;;;;16.07;4.00;;;23.10;6.90;;;;;;4996838;28;46451;-79
2023/10/11 10:52:29;;;;;;;14.17;3.50;;;23.10;6.50;;;;;;4996635;28;48664;-80
2023/10/11 10:55:03;;;;;;;14.37;4.17;;;23.00;6.20;;;;;;4994212;28;46756;-82
2023/10/11 10:57:36;;;;;;;15.13;4.03;;;23.00;5.80;;;;;;4997980;28;46617;-85
2023/10/11 11:00:20;;;;;;;21.43;4.43;;;22.90;5.50;;;;;;4996713;28;46474;-80
2023/10/11 11:02:45;;;;;;;14.23;4.23;;;22.90;5.80;;;;;;4997831;28;46238;-81
2023/10/11 11:05:14;;;;;;;12.90;3.70;;;23.00;6.30;;;;;;4997675;28;46514;-81
2023/10/11 11:07:41;;;;;;;15.27;3.93;;;23.00;6.30;;;;;;4994444;28;46510;-83
2023/10/11 11:10:07;;;;;;;13.50;4.10;;;23.20;6.40;;;;;;4998851;28;46553;-83
2023/10/11 11:12:33;;;;;;;22.63;5.30;;;23.30;6.70;;;;;;4993466;28;48202;-80
2023/10/11 11:14:59;;;;;;;19.37;3.50;;;23.30;6.30;;;;;;4997090;28;46564;-83
2023/10/11 11:17:45;;;;;;;10.97;4.00;;;23.20;6.30;;;;;;4997193;28;45947;-81
2023/10/11 11:20:15;;;;;;;15.73;3.50;;;23.30;6.30;;;;;;4997668;28;46919;-83
2023/10/11 11:22:46;;;;;;;17.97;4.70;;;23.50;6.50;;;;;;4996228;28;46981;-79
2023/10/11 11:25:27;;;;;;;13.27;4.50;;;23.50;6.30;;;;;;4996033;28;46864;-81
2023/10/11 11:28:04;;;;;;;24.43;6.27;;;23.40;6.40;;;;;;4998001;28;46432;-80
2023/10/11 11:30:33;;;;;;;21.40;4.60;;;23.40;6.30;;;;;;4996785;28;46808;-81
2023/10/11 11:33:00;;;;;;;13.60;3.77;;;23.40;6.40;;;;;;4996112;28;49113;-83
2023/10/11 11:35:29;;;;;;;20.43;4.17;;;23.30;6.30;;;;;;4994828;28;46500;-81
2023/10/11 11:38:03;;;;;;;15.43;3.93;;;23.40;6.20;;;;;;4995445;28;46395;-82
2023/10/11 11:40:36;;;;;;;23.23;4.83;;;23.30;5.80;;;;;;4999793;28;46431;-81
2023/10/11 11:43:03;;;;;;;14.00;4.10;;;23.40;6.00;;;;;;4996810;28;46651;-83
2023/10/11 11:45:29;;;;;;;14.80;3.97;;;23.30;5.80;;;;;;4998283;28;46754;-82
2023/10/11 11:47:58;;;;;;;15.87;4.17;;;23.40;6.40;;;;;;4999507;28;46536;-84
2023/10/11 11:50:33;;;;;;;17.60;4.00;;;23.40;6.10;;;;;;4999065;28;46715;-83
2023/10/11 11:53:02;;;;;;;15.73;4.70;;;23.40;5.60;;;;;;4997282;28;49499;-84
2023/10/11 11:55:27;;;;;;;12.53;3.93;;;23.50;5.70;;;;;;4995476;28;46411;-83
2023/10/11 11:57:56;;;;;;;15.23;4.40;;;23.40;5.60;;;;;;4997603;28;46916;-81
2023/10/11 12:02:58;;;;;;;18.50;4.60;;;23.50;5.30;;;;;;4997608;28;47110;-85
2023/10/11 12:05:27;;;;;;;18.87;4.20;;;23.50;5.20;;;;;;4997759;28;46356;-80
2023/10/11 12:07:57;;;;;;;16.93;4.33;;;23.60;5.30;;;;;;4997193;28;46585;-81
2023/10/11 12:10:24;;;;;;;15.23;4.43;;;23.70;5.20;;;;;;4997403;28;46697;-82
2023/10/11 12:12:53;;;;;;;18.03;3.90;;;23.80;5.20;;;;;;4994256;28;48575;-81
2023/10/11 12:15:20;;;;;;;15.87;4.23;;;23.70;4.90;;;;;;4996517;28;46437;-79
2023/10/11 12:17:47;;;;;;;21.20;3.90;;;23.50;3.90;;;;;;4996267;28;46443;-80
2023/10/11 12:20:15;;;;;;;9.00;3.27;;;23.60;3.80;;;;;;4995850;28;47567;-79
2023/10/11 12:22:44;;;;;;;9.73;3.80;;;23.70;4.00;;;;;;4995483;28;47801;-81
2023/10/11 12:25:10;;;;;;;21.77;4.47;;;23.70;4.30;;;;;;4995228;28;47252;-82
2023/10/11 12:27:42;;;;;;;22.00;4.70;;;23.70;4.00;;;;;;4995419;28;46383;-82
2023/10/11 12:30:10;;;;;;;15.63;4.17;;;23.80;4.30;;;;;;4992581;28;45915;-80
2023/10/11 12:32:36;;;;;;;18.60;3.77;;;23.70;3.60;;;;;;4996150;28;46664;-83
2023/10/11 12:35:07;;;;;;;13.33;3.50;;;23.70;3.40;;;;;;4994940;28;46689;-79
2023/10/11 12:37:33;;;;;;;16.40;3.90;;;23.70;3.60;;;;;;4996614;28;46427;-80
2023/10/11 12:39:59;;;;;;;14.23;3.50;;;23.70;4.00;;;;;;4993574;28;47190;-79
2023/10/11 12:42:24;;;;;;;21.87;4.13;;;23.70;3.40;;;;;;4996739;28;47428;-81
2023/10/11 12:44:51;;;;;;;20.90;4.00;;;23.70;3.60;;;;;;4993556;28;47519;-80
2023/10/11 12:47:19;;;;;;;14.03;4.20;;;23.70;3.40;;;;;;4994654;28;46777;-81
2023/10/11 12:49:45;;;;;;;17.40;4.00;;;23.70;3.10;;;;;;4995275;28;46556;-81
2023/10/11 12:52:18;;;;;;;22.63;4.40;;;23.70;3.10;;;;;;4995570;28;47446;-81
2023/10/11 12:54:43;;;;;;;19.73;3.67;;;23.70;3.10;;;;;;4995065;28;46562;-81
2023/10/11 12:57:09;;;;;;;23.37;4.30;;;23.70;2.50;;;;;;4996971;28;46702;-83
2023/10/11 12:59:35;;;;;;;19.27;4.13;;;23.80;2.60;;;;;;4995287;28;46425;-82
2023/10/11 13:02:04;;;;;;;17.90;3.70;;;23.80;2.60;;;;;;4995531;28;49006;-81
2023/10/11 13:04:37;;;;;;;16.03;3.83;;;23.80;2.60;;;;;;4998744;28;46542;-82
2023/10/11 13:07:10;;;;;;;14.73;3.97;;;23.90;2.80;;;;;;4998150;28;47215;-81
2023/10/11 13:09:36;;;;;;;25.13;3.80;;;23.90;2.70;;;;;;4999148;28;46522;-81
2023/10/11 13:12:03;;;;;;;12.83;3.93;;;23.90;2.70;;;;;;4997721;28;46603;-83
2023/10/11 13:14:29;;;;;;;10.73;3.33;;;24.00;2.70;;;;;;4996910;28;46448;-81
2023/10/11 13:17:00;;;;;;;16.87;4.20;;;23.90;2.60;;;;;;4995756;28;46579;-81
2023/10/11 13:19:26;;;;;;;12.67;3.80;;;24.00;2.80;;;;;;4998702;28;46447;-82
2023/10/11 13:21:54;;;;;;;23.13;3.33;;;23.90;1.30;;;;;;4998062;28;46498;-82
2023/10/11 13:24:24;;;;;;;12.93;3.70;;;23.90;1.60;;;;;;4997393;28;46765;-80
2023/10/11 13:26:54;;;;;;;8.63;3.17;;;23.90;1.90;;;;;;4996318;28;46201;-78
2023/10/11 13:29:21;;;;;;;13.80;3.80;;;23.90;2.10;;;;;;5014477;28;46456;-79
2023/10/11 13:31:49;;;;;;;11.43;3.80;;;23.80;1.40;;;;;;4998470;28;47557;-82
2023/10/11 13:34:15;;;;;;;12.27;3.60;;;23.80;1.00;;;;;;5001261;28;46702;-83
2023/10/11 13:36:43;;;;;;;12.03;4.00;;;23.80;1.00;;;;;;4998841;28;46437;-80
2023/10/11 13:39:25;;;;;;;14.43;3.57;;;23.80;1.00;;;;;;4998269;28;45901;-82
2023/10/11 13:42:09;;;;;;;23.73;4.10;;;23.80;1.00;;;;;;4996441;28;46743;-84
2023/10/11 13:44:37;;;;;;;13.43;4.20;;;23.80;1.00;;;;;;4998148;28;46456;-80
2023/10/11 13:47:03;;;;;;;18.20;3.90;;;23.80;1.00;;;;;;4998037;28;45851;-76
2023/10/11 13:49:33;;;;;;;14.03;3.83;;;23.80;1.00;;;;;;4993750;28;47073;-81
2023/10/11 13:52:03;;;;;;;12.07;4.00;;;23.80;1.00;;;;;;5003348;28;48043;-81
2023/10/11 13:54:41;;;;;;;10.77;3.80;;;23.80;1.00;;;;;;4997295;28;46494;-84